Time;durP1;ratioP1;P1;durP2;ratioP2;P2;SDS_P1;SDS_P2;PMS_P1;PMS_P2;Temp;Humidity;BMP_temperature;BMP_pressure;BME280_temperature;BME280_humidity;BME280_pressure;Samples;Min_cycle;Max_cycle;Signal;HPM_P1;HPM_P2
2022/12/14 00:00:42;;;;;;;37.08;21.25;;;1.70;99.90;;;0.46;100.00;99348.66;4169748;28;20030;-75
2022/12/14 00:02:43;;;;;;;32.25;19.98;;;1.70;99.90;;;0.47;100.00;99352.91;4170580;28;20037;-75
2022/12/14 00:04:44;;;;;;;32.25;19.95;;;1.70;99.90;;;0.43;100.00;99360.13;4170048;28;20493;-74
2022/12/14 00:06:45;;;;;;;36.30;22.08;;;1.70;99.90;;;0.42;100.00;99368.84;4170109;28;20021;-74
2022/12/14 00:08:48;;;;;;;38.15;20.60;;;1.60;99.90;;;0.44;100.00;99371.31;4169689;28;20033;-74
2022/12/14 00:10:49;;;;;;;25.60;16.40;;;1.60;99.90;;;0.33;100.00;99363.59;4159668;28;20026;-74
2022/12/14 00:12:50;;;;;;;33.42;20.13;;;1.60;99.90;;;0.38;100.00;99361.44;4171165;28;20136;-74
2022/12/14 00:14:51;;;;;;;37.83;21.42;;;1.60;99.90;;;0.40;100.00;99360.38;4176982;28;20069;-74
2022/12/14 00:16:52;;;;;;;37.00;20.50;;;1.60;99.90;;;0.38;100.00;99354.50;4170683;28;20079;-74
2022/12/14 00:18:56;;;;;;;33.00;20.35;;;1.60;99.90;;;0.38;100.00;99351.06;4170814;28;20448;-75
2022/12/14 00:21:04;;;;;;;37.53;20.77;;;1.60;99.90;;;0.42;100.00;99352.44;4169735;28;20040;-74
2022/12/14 00:23:05;;;;;;;35.65;21.63;;;1.60;99.90;;;0.41;100.00;99354.25;4169900;28;20030;-74
2022/12/14 00:25:06;;;;;;;34.15;20.65;;;1.60;99.90;;;0.41;100.00;99350.81;4170574;28;20036;-74
2022/12/14 00:27:07;;;;;;;34.72;20.63;;;1.60;99.90;;;0.42;100.00;99349.84;4169916;28;20052;-75
2022/12/14 00:29:08;;;;;;;38.28;21.77;;;1.60;99.90;;;0.35;100.00;99343.53;4170638;28;20083;-74
2022/12/14 00:31:09;;;;;;;35.45;20.58;;;1.60;99.90;;;0.39;100.00;99342.31;4170739;28;20029;-75
2022/12/14 00:33:10;;;;;;;36.92;21.42;;;1.60;99.90;;;0.39;100.00;99319.81;4169510;28;20435;-75
2022/12/14 00:35:15;;;;;;;36.38;21.05;;;1.50;99.90;;;0.40;100.00;99331.84;4169638;28;20025;-75
2022/12/14 00:37:16;;;;;;;35.40;22.02;;;1.60;99.90;;;0.42;100.00;99342.06;4169613;28;20029;-74
2022/12/14 00:39:17;;;;;;;32.45;19.63;;;1.60;99.90;;;0.36;100.00;99327.03;4170650;28;20032;-74
2022/12/14 00:41:18;;;;;;;31.45;19.42;;;1.60;99.90;;;0.49;100.00;99348.41;4169267;28;20072;-74
2022/12/14 00:43:19;;;;;;;35.72;20.02;;;1.60;99.90;;;0.41;100.00;99341.28;4170751;28;20029;-75
2022/12/14 00:45:20;;;;;;;32.72;19.23;;;1.60;99.90;;;0.43;100.00;99341.97;4170472;28;20029;-75
2022/12/14 00:47:20;;;;;;;33.05;18.48;;;1.60;99.90;;;0.40;100.00;99343.97;4170543;28;20061;-74
2022/12/14 00:49:21;;;;;;;29.63;18.73;;;1.70;99.90;;;0.48;100.00;99341.56;4170450;28;20033;-74
2022/12/14 00:51:22;;;;;;;31.23;18.98;;;1.60;99.90;;;0.37;100.00;99328.66;4169088;28;20029;-75
2022/12/14 00:53:24;;;;;;;28.80;18.55;;;1.60;99.90;;;0.49;100.00;99333.69;4170375;28;20025;-74
2022/12/14 00:55:25;;;;;;;28.67;18.33;;;1.60;99.90;;;0.44;100.00;99325.47;4169247;28;20025;-74
2022/12/14 00:57:28;;;;;;;29.70;18.38;;;1.70;99.90;;;0.42;100.00;99327.34;4170272;28;20029;-75
2022/12/14 00:59:29;;;;;;;27.88;16.92;;;1.70;99.90;;;0.47;100.00;99334.75;4169252;28;20029;-75
2022/12/14 01:01:30;;;;;;;30.25;18.33;;;1.70;99.90;;;0.40;100.00;99328.41;4170442;28;20378;-74
2022/12/14 01:03:32;;;;;;;32.00;18.55;;;1.70;99.90;;;0.38;100.00;99335.50;4152690;28;20025;-74
2022/12/14 01:05:34;;;;;;;32.33;18.50;;;1.70;99.90;;;0.42;100.00;99336.88;4170194;28;20029;-75
2022/12/14 01:07:35;;;;;;;31.75;17.63;;;1.70;99.90;;;0.40;100.00;99320.63;4170248;28;20041;-75
2022/12/14 01:09:35;;;;;;;29.23;18.63;;;1.60;99.90;;;0.43;100.00;99317.78;4169098;28;20029;-75
2022/12/14 01:11:37;;;;;;;32.17;19.67;;;1.70;99.90;;;0.42;100.00;99316.13;4170537;28;20083;-75
2022/12/14 01:13:38;;;;;;;29.58;17.90;;;1.60;99.90;;;0.50;100.00;99314.59;4168669;28;20033;-74
2022/12/14 01:15:39;;;;;;;30.15;18.60;;;1.70;99.90;;;0.52;100.00;99309.25;4168693;28;20050;-74
2022/12/14 01:17:40;;;;;;;30.73;19.58;;;1.60;99.90;;;0.54;100.00;99304.75;4169014;28;20029;-74
2022/12/14 01:19:41;;;;;;;32.30;18.90;;;1.70;99.90;;;0.49;100.00;99317.28;4170236;28;20061;-74
2022/12/14 01:21:42;;;;;;;29.98;18.30;;;1.70;99.90;;;0.48;100.00;99316.47;4169979;28;20026;-74
2022/12/14 01:23:44;;;;;;;31.60;19.05;;;1.70;99.90;;;0.48;100.00;99303.47;4170479;28;20269;-74
2022/12/14 01:25:45;;;;;;;31.65;18.83;;;1.70;99.90;;;0.45;100.00;99326.25;4168858;28;20033;-75
2022/12/14 01:27:46;;;;;;;28.40;17.40;;;1.70;99.90;;;0.49;100.00;99338.03;4170082;28;20029;-75
2022/12/14 01:29:47;;;;;;;28.40;16.50;;;1.70;99.90;;;0.52;100.00;99338.63;4168295;28;20029;-75
2022/12/14 01:31:48;;;;;;;27.38;15.80;;;1.70;99.90;;;0.52;100.00;99342.97;4170044;28;20478;-75
2022/12/14 01:33:49;;;;;;;29.05;17.75;;;1.70;99.90;;;0.58;100.00;99339.88;4170257;28;20022;-75
2022/12/14 01:35:50;;;;;;;29.58;17.60;;;1.70;99.90;;;0.57;100.00;99348.59;4168688;28;20535;-74
2022/12/14 01:37:51;;;;;;;31.17;18.88;;;1.80;99.90;;;0.61;100.00;99349.16;4169803;28;20029;-75
2022/12/14 01:39:52;;;;;;;29.02;17.77;;;1.80;99.90;;;0.64;100.00;99341.13;4170044;28;20026;-75
2022/12/14 01:41:53;;;;;;;31.00;17.88;;;1.80;99.90;;;0.57;100.00;99341.63;4169825;28;20510;-75
2022/12/14 01:43:56;;;;;;;29.65;17.70;;;1.80;99.90;;;0.62;100.00;99345.63;4168489;28;20036;-75
2022/12/14 01:45:58;;;;;;;29.73;17.50;;;1.80;99.90;;;0.59;100.00;99351.06;4169619;28;20029;-75
2022/12/14 01:48:02;;;;;;;26.55;17.55;;;1.80;99.90;;;0.60;100.00;99350.94;4169609;28;20033;-75
2022/12/14 01:50:42;;;;;;;27.75;16.92;;;1.80;99.90;;;0.62;100.00;99345.63;4168421;28;20096;-74
2022/12/14 01:52:51;;;;;;;24.95;16.52;;;1.80;99.90;;;0.69;100.00;99341.59;4168323;28;20065;-75
2022/12/14 01:55:30;;;;;;;27.50;16.35;;;1.80;99.90;;;0.66;100.00;99334.84;4168813;28;20025;-74
2022/12/14 01:57:47;;;;;;;26.17;15.07;;;1.80;99.90;;;0.67;100.00;99341.72;4160375;28;20076;-75
2022/12/14 01:59:48;;;;;;;27.77;15.85;;;1.90;99.90;;;0.64;100.00;99333.34;4169365;28;20061;-75
2022/12/14 02:01:50;;;;;;;27.23;16.15;;;1.90;99.90;;;0.69;100.00;99318.25;4168319;28;20036;-75
2022/12/14 02:03:53;;;;;;;26.33;15.93;;;1.90;99.90;;;0.72;100.00;99330.97;4169261;28;20096;-75
2022/12/14 02:06:09;;;;;;;28.33;17.70;;;1.90;99.90;;;0.72;100.00;99330.97;4169147;28;20040;-75
2022/12/14 02:08:11;;;;;;;27.52;15.98;;;1.90;99.90;;;0.65;100.00;99342.78;4169151;28;20036;-75
2022/12/14 02:10:12;;;;;;;25.52;15.45;;;1.90;99.90;;;0.69;100.00;99336.41;4156168;28;20108;-75
2022/12/14 02:12:32;;;;;;;24.58;15.52;;;1.80;99.90;;;0.64;100.00;99341.13;4167971;28;20089;-75
2022/12/14 02:14:34;;;;;;;24.92;15.38;;;1.90;99.90;;;0.69;100.00;99347.56;4151186;28;20038;-74
2022/12/14 02:16:35;;;;;;;26.13;15.45;;;1.90;99.90;;;0.70;100.00;99358.78;4168191;28;20041;-75
2022/12/14 02:18:36;;;;;;;25.38;15.60;;;1.90;99.90;;;0.67;100.00;99341.72;4168010;28;20029;-75
2022/12/14 02:20:54;;;;;;;24.98;14.43;;;1.90;99.90;;;0.68;100.00;99342.53;4169214;28;20041;-74
2022/12/14 02:23:26;;;;;;;27.17;15.88;;;1.90;99.90;;;0.67;100.00;99341.72;4168099;28;20108;-75
2022/12/14 02:25:39;;;;;;;23.50;14.25;;;1.90;99.90;;;0.72;100.00;99355.09;4168218;28;20029;-75
2022/12/14 02:28:01;;;;;;;21.70;13.95;;;1.90;99.90;;;0.75;100.00;99344.47;4167964;28;20065;-75
2022/12/14 02:30:13;;;;;;;21.98;12.88;;;1.90;99.90;;;0.70;100.00;99351.81;4167311;28;20044;-75
2022/12/14 02:32:46;;;;;;;20.02;12.60;;;2.00;99.90;;;0.73;100.00;99351.56;4168026;28;20021;-75
2022/12/14 02:35:36;;;;;;;22.17;13.00;;;1.90;99.90;;;0.71;100.00;99347.47;4168361;28;20041;-75
2022/12/14 02:38:08;;;;;;;23.38;13.65;;;1.90;99.90;;;0.74;100.00;99352.41;4168966;28;20028;-75
2022/12/14 02:40:26;;;;;;;20.73;12.48;;;1.90;99.90;;;0.74;100.00;99355.81;4168968;28;20044;-75
2022/12/14 02:42:45;;;;;;;20.25;12.23;;;1.90;99.90;;;0.72;100.00;99349.91;4167610;28;20420;-75
2022/12/14 02:45:14;;;;;;;19.75;12.32;;;2.00;99.90;;;0.75;100.00;99352.25;4167622;28;20033;-75
2022/12/14 02:47:34;;;;;;;18.38;11.93;;;1.90;99.90;;;0.75;100.00;99352.25;4167589;28;20026;-75
2022/12/14 02:50:22;;;;;;;19.67;12.55;;;2.00;99.90;;;0.74;100.00;99355.81;4167969;28;20063;-75
2022/12/14 02:52:45;;;;;;;19.85;12.57;;;2.00;99.90;;;0.75;100.00;99360.03;4135438;28;20402;-74
2022/12/14 02:55:17;;;;;;;18.90;11.65;;;1.90;99.90;;;0.73;100.00;99363.72;4168904;28;20021;-75
2022/12/14 02:57:58;;;;;;;18.73;11.90;;;2.00;99.90;;;0.68;100.00;99358.09;4168632;28;20481;-75
2022/12/14 03:00:03;;;;;;;21.23;12.85;;;1.90;99.90;;;0.70;100.00;99353.59;4168588;28;20029;-75
2022/12/14 03:02:04;;;;;;;;;;;1.90;99.90;;;0.74;100.00;99353.22;4167939;28;20583;-75
2022/12/14 03:04:06;;;;;;;20.00;11.95;;;1.90;99.90;;;0.79;100.00;99351.06;4167535;28;19917;-75
2022/12/14 03:06:24;;;;;;;21.38;12.05;;;1.90;99.90;;;0.77;100.00;99346.94;4167551;28;20029;-75
2022/12/14 03:08:28;;;;;;;21.33;12.35;;;1.90;99.90;;;0.75;100.00;99352.25;4167449;28;20060;-75
2022/12/14 03:10:46;;;;;;;19.15;11.80;;;1.90;99.90;;;0.76;100.00;99355.69;4137768;28;20052;-75
2022/12/14 03:13:09;;;;;;;17.73;11.18;;;2.00;99.90;;;0.69;100.00;99355.38;4167412;28;20547;-75
2022/12/14 03:15:16;;;;;;;15.98;11.23;;;1.90;99.90;;;0.70;100.00;99369.16;4166984;28;20410;-74
2022/12/14 03:17:22;;;;;;;19.23;12.15;;;1.90;99.90;;;0.72;100.00;99375.88;4169570;28;20030;-75
2022/12/14 03:19:51;;;;;;;19.40;11.85;;;2.00;99.90;;;0.73;100.00;99363.72;4171068;28;20206;-75
2022/12/14 03:22:33;;;;;;;18.80;11.60;;;1.90;99.90;;;0.76;100.00;99371.25;4170799;28;20033;-75
2022/12/14 03:24:42;;;;;;;17.38;10.73;;;1.90;99.90;;;0.76;100.00;99364.28;4139674;28;20041;-74
2022/12/14 03:27:16;;;;;;;16.55;10.95;;;2.00;99.90;;;0.80;100.00;99355.31;4171704;28;20061;-75
2022/12/14 03:29:26;;;;;;;19.05;11.27;;;2.00;99.90;;;0.77;100.00;99363.34;4170669;28;20117;-75
2022/12/14 03:31:41;;;;;;;18.50;10.88;;;1.90;99.90;;;0.73;100.00;99358.53;4170602;28;20037;-75
2022/12/14 03:33:46;;;;;;;16.42;10.05;;;2.00;99.90;;;0.71;100.00;99348.28;4154957;28;20018;-75
2022/12/14 03:36:13;;;;;;;18.17;11.05;;;2.00;99.90;;;0.76;100.00;99347.91;4171790;28;20055;-75
2022/12/14 03:38:27;;;;;;;16.65;11.20;;;1.90;99.90;;;0.69;100.00;99334.59;4172049;28;20026;-74
2022/12/14 03:40:41;;;;;;;13.53;7.87;;;1.90;99.90;;;0.74;100.00;99342.84;4170595;28;20029;-75
2022/12/14 03:43:26;;;;;;;17.98;11.13;;;1.90;99.90;;;0.71;100.00;99348.28;4170458;28;20040;-75
2022/12/14 03:46:00;;;;;;;18.90;11.70;;;1.90;99.90;;;0.72;100.00;99344.72;4171605;28;20025;-74
2022/12/14 03:48:34;;;;;;;18.08;11.02;;;1.90;99.90;;;0.67;100.00;99341.72;4171737;28;20029;-75
2022/12/14 03:51:01;;;;;;;19.00;10.80;;;1.90;99.90;;;0.67;100.00;99346.06;4170619;28;20076;-75
2022/12/14 03:53:11;;;;;;;16.13;10.02;;;1.90;99.90;;;0.67;100.00;99354.69;4170690;28;20028;-75
2022/12/14 03:55:31;;;;;;;17.48;11.10;;;1.90;99.90;;;0.65;100.00;99356.59;4170312;28;20093;-74
2022/12/14 03:58:08;;;;;;;14.73;9.88;;;1.90;99.90;;;0.63;100.00;99358.47;4169981;28;20026;-74
2022/12/14 04:00:15;;;;;;;17.13;11.50;;;1.90;99.90;;;0.63;100.00;99355.88;4171104;28;20087;-75
2022/12/14 04:02:34;;;;;;;17.27;11.60;;;1.90;99.90;;;0.66;100.00;99355.63;4170073;28;20098;-75
2022/12/14 04:04:34;;;;;;;18.30;11.50;;;1.90;99.90;;;0.69;100.00;99365.75;4170201;28;20024;-75
2022/12/14 04:06:53;;;;;;;17.13;11.25;;;1.90;99.90;;;0.70;100.00;99361.38;4171240;28;20029;-74
2022/12/14 04:09:17;;;;;;;18.90;11.45;;;1.90;99.90;;;0.74;100.00;99355.00;4169881;28;20507;-74
2022/12/14 04:19:00;;;;;;;16.27;10.93;;;1.90;99.90;;;0.78;100.00;99361.56;4170067;28;20059;-74
2022/12/14 04:21:18;;;;;;;17.45;10.50;;;2.00;99.90;;;0.77;100.00;99358.16;4155951;28;20030;-74
2022/12/14 04:26:04;;;;;;;16.95;9.82;;;2.00;99.90;;;0.82;100.00;99363.78;4170151;28;20080;-75
2022/12/14 04:30:41;;;;;;;19.42;11.88;;;2.00;99.90;;;0.86;100.00;99366.94;4169868;28;20083;-74
2022/12/14 04:32:57;;;;;;;18.80;12.23;;;2.00;99.90;;;0.78;100.00;99352.00;4169787;28;20037;-74
2022/12/14 04:35:32;;;;;;;20.90;12.18;;;2.00;99.90;;;0.88;100.00;99362.44;4169536;28;20064;-74
2022/12/14 04:37:37;;;;;;;18.17;12.20;;;2.00;99.90;;;0.85;100.00;99375.69;4170741;28;20088;-75
2022/12/14 04:39:51;;;;;;;20.13;12.40;;;2.00;99.90;;;0.89;100.00;99370.13;4169357;28;20485;-75
2022/12/14 04:41:57;;;;;;;22.38;13.25;;;2.00;99.90;;;0.91;100.00;99375.16;4169853;28;20033;-75
2022/12/14 04:44:02;;;;;;;21.80;11.95;;;2.10;99.90;;;0.90;100.00;99379.53;4169501;28;20030;-75
2022/12/14 04:46:19;;;;;;;20.23;11.95;;;2.10;99.90;;;0.96;100.00;99384.22;4169377;28;20644;-75
2022/12/14 04:48:58;;;;;;;22.13;12.82;;;2.10;99.90;;;0.92;100.00;99369.03;4170835;28;20096;-75
2022/12/14 04:51:24;;;;;;;19.02;11.18;;;2.10;99.90;;;0.95;100.00;99377.41;4169221;28;20516;-75
2022/12/14 04:53:29;;;;;;;17.45;11.55;;;2.20;99.90;;;0.90;100.00;99382.13;4169642;28;20109;-75
2022/12/14 04:55:50;;;;;;;18.75;10.90;;;2.10;99.90;;;0.95;100.00;99380.00;4169351;28;20029;-75
2022/12/14 04:58:03;;;;;;;19.60;11.75;;;2.10;99.90;;;0.96;100.00;99386.81;4169139;28;20028;-75
2022/12/14 05:00:04;;;;;;;20.90;11.45;;;2.10;99.90;;;0.97;100.00;99379.84;4170307;28;20108;-75
2022/12/14 05:02:17;;;;;;;23.48;12.98;;;2.20;99.90;;;0.98;100.00;99387.53;4168903;28;20029;-75
2022/12/14 05:05:05;;;;;;;22.02;11.82;;;2.20;99.90;;;0.93;100.00;99379.28;4170467;28;20043;-75
2022/12/14 05:07:52;;;;;;;20.80;11.43;;;2.10;99.90;;;0.95;100.00;99374.81;4119872;28;20581;-75
2022/12/14 05:10:00;;;;;;;18.58;11.00;;;2.10;99.90;;;0.94;100.00;99370.53;4155944;28;20050;-74
2022/12/14 05:12:49;;;;;;;18.90;12.40;;;2.10;99.90;;;0.97;100.00;99378.06;4167190;28;20047;-75
2022/12/14 05:15:35;;;;;;;18.85;10.75;;;2.10;99.90;;;0.95;100.00;99361.00;4169815;28;20389;-74
2022/12/14 05:17:38;;;;;;;17.30;11.00;;;2.10;99.90;;;0.92;100.00;99375.06;4088163;29;20040;-75
2022/12/14 05:19:49;;;;;;;21.77;12.30;;;2.10;99.90;;;0.89;100.00;99370.13;4087876;29;20633;-75
2022/12/14 05:21:50;;;;;;;18.77;11.60;;;2.20;99.90;;;0.97;100.00;99395.44;4111794;28;20062;-75
2022/12/14 05:23:51;;;;;;;20.52;11.75;;;2.20;99.90;;;0.94;100.00;99391.31;4159286;28;20030;-74
2022/12/14 05:25:52;;;;;;;21.45;12.43;;;2.20;99.90;;;1.02;100.00;99388.88;4169166;28;20079;-75
2022/12/14 05:27:53;;;;;;;25.35;12.25;;;2.10;99.90;;;1.03;100.00;99377.56;4170028;28;20079;-75
2022/12/14 05:29:53;;;;;;;19.63;11.98;;;2.20;99.90;;;1.01;100.00;99371.69;4169559;28;20029;-75
2022/12/14 05:31:55;;;;;;;23.88;12.40;;;2.10;99.90;;;0.98;100.00;99355.53;4170233;28;20026;-74
2022/12/14 05:33:55;;;;;;;20.95;12.40;;;2.10;99.90;;;0.99;100.00;99368.38;4169930;28;20037;-75
2022/12/14 05:35:56;;;;;;;23.55;12.45;;;2.20;99.90;;;1.02;100.00;99372.50;4168934;28;20017;-74
2022/12/14 05:37:57;;;;;;;23.02;12.85;;;2.20;99.90;;;1.00;100.00;99374.41;4169702;28;20029;-74
2022/12/14 05:39:58;;;;;;;23.25;12.30;;;2.20;99.90;;;1.01;100.00;99376.06;4168092;28;20022;-74
2022/12/14 05:41:59;;;;;;;19.23;11.18;;;2.20;99.90;;;1.02;100.00;99381.09;4168460;28;20447;-74
2022/12/14 05:44:00;;;;;;;18.70;11.60;;;2.20;99.90;;;1.05;100.00;99367.03;4164540;28;20025;-74
2022/12/14 05:46:03;;;;;;;23.70;11.90;;;2.20;99.90;;;1.08;100.00;99375.41;4184783;28;20021;-74
2022/12/14 05:48:04;;;;;;;18.80;11.38;;;2.20;99.90;;;1.07;100.00;99371.16;4169644;28;20404;-74
2022/12/14 05:50:06;;;;;;;21.02;12.80;;;2.20;99.90;;;1.09;100.00;99363.25;4169832;28;20029;-74
2022/12/14 05:52:07;;;;;;;19.23;11.13;;;2.30;99.90;;;1.13;100.00;99379.38;4168723;28;20513;-75
2022/12/14 05:54:08;;;;;;;23.45;13.52;;;2.30;99.90;;;1.06;100.00;99379.91;4169605;28;20036;-74
2022/12/14 05:56:10;;;;;;;21.15;11.52;;;2.30;99.90;;;1.10;100.00;99376.09;4169442;28;20040;-74
2022/12/14 05:58:11;;;;;;;19.13;10.82;;;2.30;99.90;;;1.18;100.00;99379.81;4168033;28;20032;-75
2022/12/14 06:00:13;;;;;;;19.70;12.18;;;2.30;99.90;;;1.11;100.00;99362.16;4169586;28;20025;-74
2022/12/14 06:02:14;;;;;;;19.23;11.70;;;2.30;99.90;;;1.11;100.00;99364.75;4168207;28;20108;-74
2022/12/14 06:04:16;;;;;;;20.17;11.63;;;2.30;99.90;;;1.11;100.00;99382.09;4168352;28;20366;-75
2022/12/14 06:06:17;;;;;;;19.73;11.93;;;2.30;99.90;;;1.13;100.00;99393.19;4184942;28;20021;-74
2022/12/14 06:08:18;;;;;;;21.88;12.52;;;2.20;99.90;;;1.06;100.00;99392.88;4168082;28;20020;-74
2022/12/14 06:10:18;;;;;;;20.00;11.25;;;2.20;99.90;;;1.06;100.00;99399.84;4154793;28;20022;-75
2022/12/14 06:12:19;;;;;;;17.17;10.68;;;2.20;99.90;;;1.03;100.00;99400.09;4169370;28;20061;-74
2022/12/14 06:14:23;;;;;;;19.50;11.38;;;2.20;99.90;;;1.03;100.00;99395.75;4168986;28;20396;-74
2022/12/14 06:16:25;;;;;;;21.52;11.60;;;2.20;99.90;;;1.06;100.00;99405.88;4169329;28;20077;-74
2022/12/14 06:18:26;;;;;;;19.50;11.52;;;2.30;99.90;;;1.11;100.00;99397.69;4167086;28;20025;-74
2022/12/14 06:20:27;;;;;;;21.67;11.77;;;2.30;99.90;;;1.13;100.00;99404.38;4169258;28;20021;-74
2022/12/14 06:22:28;;;;;;;18.63;11.43;;;2.30;99.90;;;1.15;100.00;99411.22;4169214;28;20018;-75
2022/12/14 06:24:29;;;;;;;20.88;11.60;;;2.30;99.90;;;1.17;100.00;99424.91;4168057;28;20026;-74
2022/12/14 06:26:31;;;;;;;18.65;11.65;;;2.40;99.90;;;1.17;100.00;99417.94;4168965;28;20504;-74
2022/12/14 06:28:33;;;;;;;18.10;11.63;;;2.40;99.90;;;1.22;100.00;99414.97;4168965;28;20401;-75
2022/12/14 06:30:34;;;;;;;20.73;11.30;;;2.40;99.90;;;1.21;100.00;99408.13;4167439;28;20143;-75
2022/12/14 06:32:35;;;;;;;21.13;12.00;;;2.40;99.90;;;1.24;100.00;99402.66;4169077;28;20079;-74
2022/12/14 06:34:36;;;;;;;17.27;10.80;;;2.40;99.90;;;1.27;100.00;99392.84;4168853;28;20029;-74
2022/12/14 06:36:40;;;;;;;16.73;10.95;;;2.50;99.90;;;1.35;100.00;99394.78;4168997;28;20034;-74
2022/12/14 06:38:41;;;;;;;;;;;2.50;99.90;;;1.32;100.00;99384.66;4169452;28;20029;-75
2022/12/14 06:40:42;;;;;;;16.88;10.48;;;2.50;99.90;;;1.30;100.00;99387.38;4168974;28;20335;-75
2022/12/14 06:42:46;;;;;;;19.85;10.95;;;2.50;99.90;;;1.35;100.00;99392.19;4168757;28;20037;-75
2022/12/14 06:44:47;;;;;;;18.40;11.90;;;2.50;99.90;;;1.34;100.00;99387.97;4167583;28;20485;-75
2022/12/14 06:46:49;;;;;;;16.83;10.50;;;2.50;99.90;;;1.33;100.00;99394.94;4168810;28;20040;-75
2022/12/14 06:48:52;;;;;;;16.33;10.07;;;2.50;99.90;;;1.34;100.00;99406.97;4168751;28;20025;-75
2022/12/14 06:51:00;;;;;;;18.80;10.70;;;2.60;99.90;;;1.37;100.00;99408.47;4167247;28;20033;-75
2022/12/14 06:53:01;;;;;;;16.42;10.52;;;2.50;99.90;;;1.36;100.00;99406.81;4167647;28;20111;-75
2022/12/14 06:55:02;;;;;;;16.13;9.48;;;2.60;99.90;;;1.40;100.00;99408.22;4168624;28;20026;-75
2022/12/14 06:57:03;;;;;;;17.80;10.15;;;2.60;99.90;;;1.37;100.00;99405.88;4168754;28;20026;-74
2022/12/14 06:59:04;;;;;;;16.45;9.43;;;2.60;99.90;;;1.39;100.00;99411.75;4168360;28;20382;-75
2022/12/14 07:01:09;;;;;;;12.63;8.68;;;2.60;99.90;;;1.40;100.00;99410.81;4169027;28;20044;-74
2022/12/14 07:03:10;;;;;;;11.73;8.63;;;2.60;99.90;;;1.45;100.00;99408.63;4168813;28;20451;-75
2022/12/14 07:05:11;;;;;;;13.25;9.20;;;2.60;99.90;;;1.48;100.00;99417.00;4168759;28;20120;-75
2022/12/14 07:07:11;;;;;;;12.98;8.85;;;2.60;99.90;;;1.50;100.00;99414.25;4167392;28;20036;-74
2022/12/14 07:09:13;;;;;;;13.25;9.32;;;2.60;99.90;;;1.41;100.00;99413.28;4164019;28;20026;-74
2022/12/14 07:11:16;;;;;;;12.15;8.68;;;2.60;99.90;;;1.49;100.00;99417.84;4159236;28;20029;-74
2022/12/14 07:13:17;;;;;;;14.63;9.32;;;2.60;99.90;;;1.48;100.00;99411.81;4168736;28;20152;-74
2022/12/14 07:15:18;;;;;;;13.85;8.23;;;2.60;99.90;;;1.39;100.00;99403.97;4150317;28;20038;-75
2022/12/14 07:17:20;;;;;;;12.85;8.00;;;2.60;99.90;;;1.45;100.00;99426.81;4152645;28;20072;-75
2022/12/14 07:19:21;;;;;;;13.85;8.55;;;2.60;99.90;;;1.44;100.00;99428.59;4168591;28;20021;-75
2022/12/14 07:21:23;;;;;;;15.27;9.95;;;2.60;99.90;;;1.39;100.00;99435.13;4167265;28;20037;-75
2022/12/14 07:23:27;;;;;;;12.45;8.70;;;2.60;99.90;;;1.41;100.00;99452.25;4167220;28;20034;-75
2022/12/14 07:25:27;;;;;;;13.70;9.13;;;2.60;99.90;;;1.41;100.00;99444.44;4168672;28;20488;-75
2022/12/14 07:27:29;;;;;;;12.02;8.85;;;2.60;99.90;;;1.42;100.00;99445.28;4168434;28;20034;-75
2022/12/14 07:29:30;;;;;;;15.43;9.50;;;2.60;99.90;;;1.40;100.00;99445.41;4167048;28;20037;-75
2022/12/14 07:31:30;;;;;;;12.50;8.82;;;2.60;99.90;;;1.41;100.00;99438.41;4167059;28;20033;-75
2022/12/14 07:33:31;;;;;;;15.55;9.55;;;2.60;99.90;;;1.34;100.00;99426.94;4168539;28;20025;-75
2022/12/14 07:35:32;;;;;;;13.25;8.82;;;2.60;99.90;;;1.39;100.00;99430.78;4167317;28;20104;-75
2022/12/14 07:37:33;;;;;;;11.10;8.35;;;2.60;99.90;;;1.33;100.00;99433.88;4168370;28;20014;-74
2022/12/14 07:39:34;;;;;;;14.55;9.90;;;2.50;99.90;;;1.26;100.00;99453.53;4168258;28;20068;-75
2022/12/14 07:41:35;;;;;;;14.40;9.05;;;2.50;99.90;;;1.29;100.00;99452.44;4150840;28;20033;-75
2022/12/14 07:43:38;;;;;;;14.80;9.02;;;2.50;99.90;;;1.31;100.00;99451.41;4168251;28;20026;-75
2022/12/14 07:45:39;;;;;;;14.50;9.10;;;2.50;99.90;;;1.25;100.00;99451.06;4168426;28;20033;-75
2022/12/14 07:47:40;;;;;;;13.48;8.77;;;2.50;99.90;;;1.25;100.00;99457.09;4167962;28;20444;-74
2022/12/14 07:49:41;;;;;;;13.45;8.88;;;2.50;99.90;;;1.24;100.00;99465.00;4168413;28;20038;-74
2022/12/14 07:51:43;;;;;;;13.82;8.45;;;2.40;99.90;;;1.23;100.00;99450.34;4167050;28;20044;-74
2022/12/14 07:53:44;;;;;;;13.85;8.60;;;2.40;99.90;;;1.30;100.00;99465.31;4168382;28;20111;-74
2022/12/14 07:55:45;;;;;;;15.65;9.38;;;2.50;99.90;;;1.35;100.00;99462.31;4166604;28;20025;-74
2022/12/14 07:57:46;;;;;;;13.15;9.23;;;2.50;99.90;;;1.34;100.00;99471.09;4166824;28;20104;-74
2022/12/14 07:59:48;;;;;;;14.23;8.90;;;2.50;99.90;;;1.33;100.00;99472.03;4168069;28;20017;-74
2022/12/14 08:01:51;;;;;;;13.77;8.98;;;2.50;99.90;;;1.38;100.00;99475.06;4167116;28;20057;-74
2022/12/14 08:04:09;;;;;;;12.45;8.95;;;2.50;99.90;;;1.40;100.00;99480.97;4168478;28;20036;-74
2022/12/14 08:06:11;;;;;;;12.95;8.38;;;2.50;99.90;;;1.40;100.00;99481.78;4169643;28;20141;-74
2022/12/14 08:08:12;;;;;;;10.55;8.30;;;2.60;99.90;;;1.41;100.00;99483.41;4171158;28;20021;-74
2022/12/14 08:10:13;;;;;;;13.20;9.05;;;2.60;99.90;;;1.38;100.00;99482.84;4158030;28;20037;-74
2022/12/14 08:12:14;;;;;;;12.40;8.23;;;2.60;99.90;;;1.35;100.00;99470.94;4156938;28;20601;-74
2022/12/14 08:14:17;;;;;;;14.52;9.43;;;2.50;99.90;;;1.23;100.00;99474.56;4170816;28;20022;-74
2022/12/14 08:16:18;;;;;;;14.30;9.10;;;2.50;99.90;;;1.28;100.00;99479.38;4169718;28;20045;-74
2022/12/14 08:18:19;;;;;;;13.40;9.50;;;2.50;99.90;;;1.31;100.00;99482.56;4169760;28;20036;-74
2022/12/14 08:20:20;;;;;;;14.70;9.68;;;2.50;99.90;;;1.20;100.00;99474.81;4170946;28;20029;-74
2022/12/14 08:22:21;;;;;;;18.52;10.23;;;2.40;99.90;;;1.25;100.00;99482.25;4169772;28;20030;-73
2022/12/14 08:24:22;;;;;;;14.13;10.00;;;2.40;99.90;;;1.22;100.00;99482.50;4170854;28;20488;-73
2022/12/14 08:26:24;;;;;;;14.45;9.25;;;2.40;99.90;;;1.23;100.00;99487.56;4169716;28;20025;-73
2022/12/14 08:28:27;;;;;;;14.18;9.93;;;2.40;99.90;;;1.17;100.00;99493.25;4169327;28;20022;-73
2022/12/14 08:30:28;;;;;;;13.60;9.52;;;2.40;99.90;;;1.22;100.00;99503.28;4169624;28;20029;-73
2022/12/14 08:32:29;;;;;;;15.00;9.73;;;2.40;99.90;;;1.23;100.00;99502.31;4153023;28;20029;-73
2022/12/14 08:34:30;;;;;;;17.00;10.15;;;2.40;99.90;;;1.27;100.00;99504.53;4169663;28;20064;-72
2022/12/14 08:36:33;;;;;;;13.75;9.88;;;2.40;99.90;;;1.23;100.00;99502.31;4170763;28;20025;-73
2022/12/14 08:38:35;;;;;;;15.20;10.18;;;2.40;99.90;;;1.24;100.00;99503.97;4169439;28;20033;-73
2022/12/14 08:40:37;;;;;;;15.70;10.15;;;2.40;99.90;;;1.20;100.00;99492.16;4169495;28;20028;-73
2022/12/14 08:42:38;;;;;;;15.65;10.35;;;2.40;99.90;;;1.25;100.00;99484.84;4169455;28;20370;-73
2022/12/14 08:44:39;;;;;;;14.55;9.35;;;2.40;99.90;;;1.20;100.00;99494.78;4170377;28;20033;-73
2022/12/14 08:46:41;;;;;;;16.38;10.02;;;2.40;99.90;;;1.34;100.00;99494.47;4170762;28;20034;-73
2022/12/14 08:48:42;;;;;;;15.25;9.18;;;2.40;99.90;;;1.27;100.00;99490.72;4169510;28;20029;-73
2022/12/14 08:50:42;;;;;;;14.80;9.77;;;2.50;99.90;;;1.20;100.00;99485.22;4170307;28;20029;-73
2022/12/14 08:52:48;;;;;;;15.82;10.20;;;2.40;99.90;;;1.36;100.00;99479.56;4170081;28;20036;-71
2022/12/14 08:54:48;;;;;;;13.65;9.25;;;2.50;99.90;;;1.36;100.00;99479.56;4170632;28;20033;-71
2022/12/14 08:56:49;;;;;;;12.90;8.70;;;2.50;99.90;;;1.45;100.00;99481.38;4170451;28;20044;-71
2022/12/14 08:58:50;;;;;;;15.27;9.93;;;2.60;99.90;;;1.41;100.00;99480.81;4170194;28;20025;-70
2022/12/14 09:01:13;;;;;;;13.40;9.18;;;2.60;99.90;;;1.45;100.00;99490.00;4169084;28;20033;-71
2022/12/14 09:03:14;;;;;;;12.38;7.78;;;2.60;99.90;;;1.38;100.00;99498.44;4170473;28;20037;-70
2022/12/14 09:05:15;;;;;;;12.45;8.30;;;2.60;99.90;;;1.32;100.00;99493.75;4170378;28;20028;-70